sensor_id;sensor_type;location;lat;lon;timestamp;pressure;altitude;pressure_sealevel;temperature;humidity
27984;BME280;15317;50.360;8.726;2023-09-30T00:04:52;100287.47;;;15.24;100.00
27984;BME280;15317;50.360;8.726;2023-09-30T00:09:56;100289.19;;;15.17;100.00
27984;BME280;15317;50.360;8.726;2023-09-30T00:15:00;100313.13;;;15.07;100.00
27984;BME280;15317;50.360;8.726;2023-09-30T00:20:05;100334.84;;;15.09;100.00
27984;BME280;15317;50.360;8.726;2023-09-30T00:25:09;100330.56;;;15.06;100.00
27984;BME280;15317;50.360;8.726;2023-09-30T00:30:14;100337.06;;;15.05;100.00
27984;BME280;15317;50.360;8.726;2023-09-30T00:35:17;100339.78;;;14.97;100.00
27984;BME280;15317;50.360;8.726;2023-09-30T00:40:20;100355.84;;;14.92;100.00
27984;BME280;15317;50.360;8.726;2023-09-30T00:45:25;100352.06;;;14.85;100.00
27984;BME280;15317;50.360;8.726;2023-09-30T00:50:30;100364.03;;;14.84;100.00
27984;BME280;15317;50.360;8.726;2023-09-30T00:55:33;100362.66;;;14.80;100.00
27984;BME280;15317;50.360;8.726;2023-09-30T01:00:39;100367.25;;;14.79;100.00
27984;BME280;15317;50.360;8.726;2023-09-30T01:05:42;100365.72;;;14.77;100.00
27984;BME280;15317;50.360;8.726;2023-09-30T01:10:45;100375.94;;;14.75;100.00
27984;BME280;15317;50.360;8.726;2023-09-30T01:15:50;100382.47;;;14.74;100.00
27984;BME280;15317;50.360;8.726;2023-09-30T01:20:54;100398.69;;;14.75;100.00
27984;BME280;15317;50.360;8.726;2023-09-30T01:26:02;100394.53;;;14.63;100.00
27984;BME280;15317;50.360;8.726;2023-09-30T01:31:07;100396.41;;;14.62;100.00
27984;BME280;15317;50.360;8.726;2023-09-30T01:36:10;100397.59;;;14.60;100.00
27984;BME280;15317;50.360;8.726;2023-09-30T01:41:15;100389.56;;;14.58;100.00
27984;BME280;15317;50.360;8.726;2023-09-30T01:46:18;100397.06;;;14.56;100.00
27984;BME280;15317;50.360;8.726;2023-09-30T01:51:21;100389.19;;;14.53;100.00
27984;BME280;15317;50.360;8.726;2023-09-30T01:56:26;100399.75;;;14.48;100.00
27984;BME280;15317;50.360;8.726;2023-09-30T02:01:30;100394.44;;;14.47;100.00
27984;BME280;15317;50.360;8.726;2023-09-30T02:06:33;100395.50;;;14.46;100.00
27984;BME280;15317;50.360;8.726;2023-09-30T02:11:39;100394.25;;;14.40;100.00
27984;BME280;15317;50.360;8.726;2023-09-30T02:16:43;100405.97;;;14.33;100.00
27984;BME280;15317;50.360;8.726;2023-09-30T02:21:47;100417.84;;;14.23;100.00
27984;BME280;15317;50.360;8.726;2023-09-30T02:26:52;100434.41;;;14.22;100.00
27984;BME280;15317;50.360;8.726;2023-09-30T02:31:55;100430.66;;;14.23;100.00
27984;BME280;15317;50.360;8.726;2023-09-30T02:36:58;100422.25;;;14.16;100.00
27984;BME280;15317;50.360;8.726;2023-09-30T02:42:03;100410.03;;;14.03;100.00
27984;BME280;15317;50.360;8.726;2023-09-30T02:47:06;100412.38;;;13.98;100.00
27984;BME280;15317;50.360;8.726;2023-09-30T02:52:10;100426.13;;;13.88;100.00
27984;BME280;15317;50.360;8.726;2023-09-30T02:57:16;100437.53;;;13.83;100.00
27984;BME280;15317;50.360;8.726;2023-09-30T03:02:20;100436.97;;;13.80;100.00
27984;BME280;15317;50.360;8.726;2023-09-30T03:07:24;100441.75;;;13.78;100.00
27984;BME280;15317;50.360;8.726;2023-09-30T03:12:29;100433.16;;;13.73;100.00
27984;BME280;15317;50.360;8.726;2023-09-30T03:17:33;100439.41;;;13.65;100.00
27984;BME280;15317;50.360;8.726;2023-09-30T03:22:38;100447.78;;;13.64;100.00
27984;BME280;15317;50.360;8.726;2023-09-30T03:27:43;100431.84;;;13.59;100.00
27984;BME280;15317;50.360;8.726;2023-09-30T03:32:48;100434.91;;;13.56;100.00
27984;BME280;15317;50.360;8.726;2023-09-30T03:37:51;100453.28;;;13.54;100.00
27984;BME280;15317;50.360;8.726;2023-09-30T03:42:56;100446.13;;;13.53;100.00
27984;BME280;15317;50.360;8.726;2023-09-30T03:48:00;100458.75;;;13.54;100.00
27984;BME280;15317;50.360;8.726;2023-09-30T03:53:05;100464.78;;;13.58;100.00
27984;BME280;15317;50.360;8.726;2023-09-30T03:58:10;100465.47;;;13.60;100.00
27984;BME280;15317;50.360;8.726;2023-09-30T04:03:14;100453.38;;;13.62;100.00
27984;BME280;15317;50.360;8.726;2023-09-30T04:08:18;100456.75;;;13.56;100.00
27984;BME280;15317;50.360;8.726;2023-09-30T04:13:22;100450.81;;;13.43;100.00
27984;BME280;15317;50.360;8.726;2023-09-30T04:18:25;100464.50;;;13.33;100.00
27984;BME280;15317;50.360;8.726;2023-09-30T04:23:29;100467.75;;;13.19;100.00
27984;BME280;15317;50.360;8.726;2023-09-30T04:28:33;100479.38;;;13.12;100.00
27984;BME280;15317;50.360;8.726;2023-09-30T04:33:37;100473.81;;;13.03;100.00
27984;BME280;15317;50.360;8.726;2023-09-30T04:38:41;100501.88;;;12.96;100.00
27984;BME280;15317;50.360;8.726;2023-09-30T04:43:46;100501.91;;;12.86;100.00
27984;BME280;15317;50.360;8.726;2023-09-30T04:48:51;100500.38;;;12.74;100.00
27984;BME280;15317;50.360;8.726;2023-09-30T04:53:54;100493.09;;;12.65;100.00
27984;BME280;15317;50.360;8.726;2023-09-30T04:58:59;100483.06;;;12.56;100.00
27984;BME280;15317;50.360;8.726;2023-09-30T05:04:03;100467.06;;;12.43;100.00
27984;BME280;15317;50.360;8.726;2023-09-30T05:09:06;100462.66;;;12.33;100.00
27984;BME280;15317;50.360;8.726;2023-09-30T05:14:11;100470.97;;;12.21;100.00
27984;BME280;15317;50.360;8.726;2023-09-30T05:19:15;100477.31;;;12.12;100.00
27984;BME280;15317;50.360;8.726;2023-09-30T05:24:18;100494.66;;;12.02;100.00
27984;BME280;15317;50.360;8.726;2023-09-30T05:29:24;100506.84;;;11.98;100.00
27984;BME280;15317;50.360;8.726;2023-09-30T05:34:27;100502.72;;;11.94;100.00
27984;BME280;15317;50.360;8.726;2023-09-30T05:39:31;100507.44;;;11.92;100.00
27984;BME280;15317;50.360;8.726;2023-09-30T05:44:35;100522.19;;;11.89;100.00
27984;BME280;15317;50.360;8.726;2023-09-30T05:49:39;100528.50;;;11.90;100.00
27984;BME280;15317;50.360;8.726;2023-09-30T05:54:43;100521.91;;;11.92;100.00
27984;BME280;15317;50.360;8.726;2023-09-30T05:59:48;100518.75;;;11.97;100.00
27984;BME280;15317;50.360;8.726;2023-09-30T06:04:51;100517.75;;;11.98;100.00
27984;BME280;15317;50.360;8.726;2023-09-30T06:09:55;100525.19;;;12.05;100.00
27984;BME280;15317;50.360;8.726;2023-09-30T06:15:01;100525.03;;;12.16;100.00
27984;BME280;15317;50.360;8.726;2023-09-30T06:20:05;100537.66;;;12.27;100.00
27984;BME280;15317;50.360;8.726;2023-09-30T06:25:11;100545.22;;;12.43;100.00
27984;BME280;15317;50.360;8.726;2023-09-30T06:30:18;100558.09;;;12.60;100.00
27984;BME280;15317;50.360;8.726;2023-09-30T06:35:23;100554.50;;;12.69;100.00
27984;BME280;15317;50.360;8.726;2023-09-30T06:40:29;100561.06;;;12.76;100.00
27984;BME280;15317;50.360;8.726;2023-09-30T06:45:33;100552.44;;;12.81;100.00
27984;BME280;15317;50.360;8.726;2023-09-30T06:50:44;100555.84;;;12.92;100.00
27984;BME280;15317;50.360;8.726;2023-09-30T06:55:47;100560.25;;;13.13;100.00
27984;BME280;15317;50.360;8.726;2023-09-30T07:00:52;100565.72;;;13.40;100.00
27984;BME280;15317;50.360;8.726;2023-09-30T07:05:56;100567.53;;;13.76;100.00
27984;BME280;15317;50.360;8.726;2023-09-30T07:11:02;100558.47;;;14.29;100.00
27984;BME280;15317;50.360;8.726;2023-09-30T07:16:09;100552.00;;;14.99;100.00
27984;BME280;15317;50.360;8.726;2023-09-30T07:21:13;100559.72;;;15.88;100.00
27984;BME280;15317;50.360;8.726;2023-09-30T07:26:16;100559.72;;;17.02;100.00
27984;BME280;15317;50.360;8.726;2023-09-30T07:31:21;100559.81;;;18.02;100.00
27984;BME280;15317;50.360;8.726;2023-09-30T07:36:25;100560.63;;;18.57;100.00
27984;BME280;15317;50.360;8.726;2023-09-30T07:41:34;100556.47;;;19.27;92.95
27984;BME280;15317;50.360;8.726;2023-09-30T07:46:38;100570.34;;;19.49;91.00
27984;BME280;15317;50.360;8.726;2023-09-30T07:51:42;100565.97;;;20.05;83.27
27984;BME280;15317;50.360;8.726;2023-09-30T07:56:45;100568.84;;;19.97;85.78
27984;BME280;15317;50.360;8.726;2023-09-30T08:01:50;100561.38;;;20.76;83.32
27984;BME280;15317;50.360;8.726;2023-09-30T08:06:54;100566.25;;;20.31;84.73
27984;BME280;15317;50.360;8.726;2023-09-30T08:11:58;100573.88;;;21.21;85.83
27984;BME280;15317;50.360;8.726;2023-09-30T08:17:02;100580.97;;;20.81;82.46
27984;BME280;15317;50.360;8.726;2023-09-30T08:22:05;100582.59;;;21.65;73.05
27984;BME280;15317;50.360;8.726;2023-09-30T08:27:09;100577.56;;;21.07;75.61
27984;BME280;15317;50.360;8.726;2023-09-30T08:32:13;100578.88;;;20.62;78.46
27984;BME280;15317;50.360;8.726;2023-09-30T08:37:16;100579.31;;;21.42;76.08
27984;BME280;15317;50.360;8.726;2023-09-30T08:42:22;100599.81;;;22.02;77.12
27984;BME280;15317;50.360;8.726;2023-09-30T08:47:28;100609.34;;;22.67;66.52
27984;BME280;15317;50.360;8.726;2023-09-30T08:52:32;100601.50;;;21.21;68.84
27984;BME280;15317;50.360;8.726;2023-09-30T08:57:40;100604.34;;;19.85;83.15
27984;BME280;15317;50.360;8.726;2023-09-30T09:02:45;100598.06;;;19.03;80.21
27984;BME280;15317;50.360;8.726;2023-09-30T09:07:48;100606.81;;;18.84;79.94
27984;BME280;15317;50.360;8.726;2023-09-30T09:12:55;100620.84;;;19.12;75.25
27984;BME280;15317;50.360;8.726;2023-09-30T09:18:00;100617.91;;;19.87;80.12
27984;BME280;15317;50.360;8.726;2023-09-30T09:23:06;100631.06;;;20.21;74.88
27984;BME280;15317;50.360;8.726;2023-09-30T09:28:09;100623.34;;;20.31;72.57
27984;BME280;15317;50.360;8.726;2023-09-30T09:33:14;100629.31;;;20.98;75.83
27984;BME280;15317;50.360;8.726;2023-09-30T09:38:19;100635.69;;;22.36;72.48
27984;BME280;15317;50.360;8.726;2023-09-30T09:43:22;100640.09;;;23.18;62.42
27984;BME280;15317;50.360;8.726;2023-09-30T09:48:27;100637.94;;;22.80;63.94
27984;BME280;15317;50.360;8.726;2023-09-30T09:53:34;100625.16;;;21.71;64.28
27984;BME280;15317;50.360;8.726;2023-09-30T09:58:42;100622.47;;;22.38;65.21
27984;BME280;15317;50.360;8.726;2023-09-30T10:03:47;100610.81;;;21.89;63.50
27984;BME280;15317;50.360;8.726;2023-09-30T10:08:51;100597.38;;;22.40;71.96
27984;BME280;15317;50.360;8.726;2023-09-30T10:13:57;100586.50;;;22.38;62.23
27984;BME280;15317;50.360;8.726;2023-09-30T10:19:11;100578.00;;;21.86;65.17
27984;BME280;15317;50.360;8.726;2023-09-30T10:24:30;100575.44;;;21.84;62.45
27984;BME280;15317;50.360;8.726;2023-09-30T10:29:39;100570.81;;;20.60;67.94
27984;BME280;15317;50.360;8.726;2023-09-30T10:34:49;100577.94;;;21.04;71.07
27984;BME280;15317;50.360;8.726;2023-09-30T10:39:56;100588.41;;;22.31;65.12
27984;BME280;15317;50.360;8.726;2023-09-30T10:45:00;100587.75;;;22.16;61.43
27984;BME280;15317;50.360;8.726;2023-09-30T10:50:49;100578.97;;;22.06;55.36
27984;BME280;15317;50.360;8.726;2023-09-30T10:55:54;100578.03;;;21.92;64.42
27984;BME280;15317;50.360;8.726;2023-09-30T11:00:58;100567.75;;;21.73;60.27
27984;BME280;15317;50.360;8.726;2023-09-30T11:06:03;100566.72;;;22.55;57.96
27984;BME280;15317;50.360;8.726;2023-09-30T11:11:09;100589.78;;;23.01;57.69
27984;BME280;15317;50.360;8.726;2023-09-30T11:16:12;100595.19;;;23.80;58.38
27984;BME280;15317;50.360;8.726;2023-09-30T11:21:17;100607.09;;;23.94;56.66
27984;BME280;15317;50.360;8.726;2023-09-30T11:26:29;100584.41;;;22.67;53.45
27984;BME280;15317;50.360;8.726;2023-09-30T11:31:37;100564.38;;;21.84;57.21
27984;BME280;15317;50.360;8.726;2023-09-30T11:36:47;100553.09;;;22.53;56.24
27984;BME280;15317;50.360;8.726;2023-09-30T11:41:52;100570.34;;;23.14;55.70
27984;BME280;15317;50.360;8.726;2023-09-30T11:46:58;100575.88;;;22.49;58.29
27984;BME280;15317;50.360;8.726;2023-09-30T11:52:06;100577.06;;;24.16;49.49
27984;BME280;15317;50.360;8.726;2023-09-30T11:57:11;100559.22;;;23.54;51.71
27984;BME280;15317;50.360;8.726;2023-09-30T12:02:17;100545.84;;;23.24;50.21
27984;BME280;15317;50.360;8.726;2023-09-30T12:07:22;100552.63;;;22.17;51.77
27984;BME280;15317;50.360;8.726;2023-09-30T12:12:25;100545.16;;;23.29;52.29
27984;BME280;15317;50.360;8.726;2023-09-30T12:17:28;100541.50;;;23.55;51.69
27984;BME280;15317;50.360;8.726;2023-09-30T12:22:32;100529.16;;;23.51;45.38
27984;BME280;15317;50.360;8.726;2023-09-30T12:27:35;100542.25;;;23.75;41.28
27984;BME280;15317;50.360;8.726;2023-09-30T12:32:41;100533.66;;;23.39;38.94
27984;BME280;15317;50.360;8.726;2023-09-30T12:37:46;100534.34;;;22.49;43.29
27984;BME280;15317;50.360;8.726;2023-09-30T12:42:49;100530.94;;;22.46;48.14
27984;BME280;15317;50.360;8.726;2023-09-30T12:47:52;100528.41;;;22.98;46.69
27984;BME280;15317;50.360;8.726;2023-09-30T12:52:59;100516.44;;;23.10;49.79
27984;BME280;15317;50.360;8.726;2023-09-30T12:58:03;100524.34;;;22.80;42.30
27984;BME280;15317;50.360;8.726;2023-09-30T13:03:06;100532.94;;;23.63;43.78
27984;BME280;15317;50.360;8.726;2023-09-30T13:08:11;100535.75;;;23.50;39.65
27984;BME280;15317;50.360;8.726;2023-09-30T13:13:14;100538.91;;;23.67;42.60
27984;BME280;15317;50.360;8.726;2023-09-30T13:18:17;100525.41;;;23.12;45.90
27984;BME280;15317;50.360;8.726;2023-09-30T13:23:22;100520.47;;;23.85;40.38
27984;BME280;15317;50.360;8.726;2023-09-30T13:28:26;100503.97;;;23.52;42.39
27984;BME280;15317;50.360;8.726;2023-09-30T13:33:30;100486.06;;;23.42;40.64
27984;BME280;15317;50.360;8.726;2023-09-30T13:38:35;100469.09;;;23.18;39.95
27984;BME280;15317;50.360;8.726;2023-09-30T13:43:39;100488.34;;;22.34;42.92
27984;BME280;15317;50.360;8.726;2023-09-30T13:48:42;100492.16;;;22.60;49.03
27984;BME280;15317;50.360;8.726;2023-09-30T13:53:47;100481.53;;;22.30;44.55
27984;BME280;15317;50.360;8.726;2023-09-30T13:58:50;100478.31;;;22.33;42.88
27984;BME280;15317;50.360;8.726;2023-09-30T14:03:54;100459.41;;;22.17;43.45
27984;BME280;15317;50.360;8.726;2023-09-30T14:09:00;100457.91;;;22.28;45.98
27984;BME280;15317;50.360;8.726;2023-09-30T14:14:03;100451.69;;;22.19;48.02
27984;BME280;15317;50.360;8.726;2023-09-30T14:19:07;100449.38;;;22.36;46.13
27984;BME280;15317;50.360;8.726;2023-09-30T14:24:12;100442.13;;;20.94;45.99
27984;BME280;15317;50.360;8.726;2023-09-30T14:29:15;100447.38;;;21.23;50.57
27984;BME280;15317;50.360;8.726;2023-09-30T14:34:18;100448.31;;;21.43;48.57
27984;BME280;15317;50.360;8.726;2023-09-30T14:39:23;100444.13;;;21.13;49.92
27984;BME280;15317;50.360;8.726;2023-09-30T14:44:26;100450.41;;;20.94;51.09
27984;BME280;15317;50.360;8.726;2023-09-30T14:49:30;100441.50;;;20.36;54.10
27984;BME280;15317;50.360;8.726;2023-09-30T14:54:34;100428.47;;;19.81;56.66
27984;BME280;15317;50.360;8.726;2023-09-30T14:59:38;100437.50;;;19.53;50.20
27984;BME280;15317;50.360;8.726;2023-09-30T15:04:41;100430.75;;;18.76;56.38
27984;BME280;15317;50.360;8.726;2023-09-30T15:09:45;100438.53;;;18.20;62.44
27984;BME280;15317;50.360;8.726;2023-09-30T15:14:49;100419.81;;;17.78;66.33
27984;BME280;15317;50.360;8.726;2023-09-30T15:19:53;100422.94;;;17.44;71.22
27984;BME280;15317;50.360;8.726;2023-09-30T15:24:58;100424.00;;;17.12;75.21
27984;BME280;15317;50.360;8.726;2023-09-30T15:30:02;100427.28;;;16.99;79.58
27984;BME280;15317;50.360;8.726;2023-09-30T15:35:06;100424.28;;;16.86;77.61
27984;BME280;15317;50.360;8.726;2023-09-30T15:40:10;100421.59;;;16.78;79.92
27984;BME280;15317;50.360;8.726;2023-09-30T15:45:13;100433.25;;;16.72;82.04
27984;BME280;15317;50.360;8.726;2023-09-30T15:50:19;100438.78;;;16.64;84.04
27984;BME280;15317;50.360;8.726;2023-09-30T15:55:24;100434.66;;;16.60;84.21
27984;BME280;15317;50.360;8.726;2023-09-30T16:00:27;100436.19;;;16.54;81.56
27984;BME280;15317;50.360;8.726;2023-09-30T16:05:31;100430.38;;;16.41;81.71
27984;BME280;15317;50.360;8.726;2023-09-30T16:10:36;100436.41;;;16.29;85.47
27984;BME280;15317;50.360;8.726;2023-09-30T16:15:41;100430.94;;;16.12;85.61
27984;BME280;15317;50.360;8.726;2023-09-30T16:20:44;100425.50;;;15.96;87.42
27984;BME280;15317;50.360;8.726;2023-09-30T16:25:50;100433.00;;;15.78;93.25
27984;BME280;15317;50.360;8.726;2023-09-30T16:30:53;100415.13;;;15.50;100.00
27984;BME280;15317;50.360;8.726;2023-09-30T16:35:57;100418.03;;;15.32;100.00
27984;BME280;15317;50.360;8.726;2023-09-30T16:41:01;100425.34;;;15.23;98.35
27984;BME280;15317;50.360;8.726;2023-09-30T16:46:05;100426.19;;;15.08;100.00
27984;BME280;15317;50.360;8.726;2023-09-30T16:51:09;100417.50;;;14.78;100.00
27984;BME280;15317;50.360;8.726;2023-09-30T16:56:14;100427.69;;;14.60;100.00
27984;BME280;15317;50.360;8.726;2023-09-30T17:01:17;100431.69;;;14.48;100.00
27984;BME280;15317;50.360;8.726;2023-09-30T17:06:23;100432.25;;;14.34;100.00
27984;BME280;15317;50.360;8.726;2023-09-30T17:11:27;100428.25;;;14.20;100.00
27984;BME280;15317;50.360;8.726;2023-09-30T17:16:30;100428.13;;;14.04;100.00
27984;BME280;15317;50.360;8.726;2023-09-30T17:21:34;100429.94;;;13.95;100.00
27984;BME280;15317;50.360;8.726;2023-09-30T17:26:40;100434.81;;;13.83;100.00
27984;BME280;15317;50.360;8.726;2023-09-30T17:31:44;100435.75;;;13.74;100.00
27984;BME280;15317;50.360;8.726;2023-09-30T17:36:47;100432.56;;;13.61;100.00
27984;BME280;15317;50.360;8.726;2023-09-30T17:41:52;100446.13;;;13.53;100.00
27984;BME280;15317;50.360;8.726;2023-09-30T17:46:55;100455.31;;;13.52;100.00
27984;BME280;15317;50.360;8.726;2023-09-30T17:51:58;100451.50;;;13.45;100.00
27984;BME280;15317;50.360;8.726;2023-09-30T17:57:03;100462.16;;;13.38;100.00
27984;BME280;15317;50.360;8.726;2023-09-30T18:02:06;100452.00;;;13.31;100.00
27984;BME280;15317;50.360;8.726;2023-09-30T18:07:09;100451.53;;;13.18;100.00
27984;BME280;15317;50.360;8.726;2023-09-30T18:12:14;100450.72;;;13.07;100.00
27984;BME280;15317;50.360;8.726;2023-09-30T18:17:17;100441.03;;;12.95;100.00
27984;BME280;15317;50.360;8.726;2023-09-30T18:22:21;100447.38;;;12.86;100.00
27984;BME280;15317;50.360;8.726;2023-09-30T18:27:25;100448.28;;;12.77;100.00
27984;BME280;15317;50.360;8.726;2023-09-30T18:32:29;100461.81;;;12.69;100.00
27984;BME280;15317;50.360;8.726;2023-09-30T18:37:32;100460.13;;;12.58;100.00
27984;BME280;15317;50.360;8.726;2023-09-30T18:42:36;100450.28;;;12.48;100.00
27984;BME280;15317;50.360;8.726;2023-09-30T18:47:39;100452.16;;;12.38;100.00
27984;BME280;15317;50.360;8.726;2023-09-30T18:52:42;100456.66;;;12.19;100.00
27984;BME280;15317;50.360;8.726;2023-09-30T18:57:47;100467.16;;;12.05;100.00
27984;BME280;15317;50.360;8.726;2023-09-30T19:02:50;100459.72;;;12.07;100.00
27984;BME280;15317;50.360;8.726;2023-09-30T19:07:53;100452.63;;;12.23;100.00
27984;BME280;15317;50.360;8.726;2023-09-30T19:12:58;100451.03;;;12.31;100.00
27984;BME280;15317;50.360;8.726;2023-09-30T19:18:01;100454.22;;;12.26;100.00
27984;BME280;15317;50.360;8.726;2023-09-30T19:23:05;100452.50;;;12.15;100.00
27984;BME280;15317;50.360;8.726;2023-09-30T19:28:10;100445.91;;;12.08;100.00
27984;BME280;15317;50.360;8.726;2023-09-30T19:33:13;100457.56;;;12.01;100.00
27984;BME280;15317;50.360;8.726;2023-09-30T19:38:18;100448.25;;;11.84;100.00
27984;BME280;15317;50.360;8.726;2023-09-30T19:43:22;100445.94;;;11.70;100.00
27984;BME280;15317;50.360;8.726;2023-09-30T19:48:26;100465.56;;;11.64;100.00
27984;BME280;15317;50.360;8.726;2023-09-30T19:53:29;100465.72;;;11.62;100.00
27984;BME280;15317;50.360;8.726;2023-09-30T19:58:33;100456.25;;;11.57;100.00
27984;BME280;15317;50.360;8.726;2023-09-30T20:03:37;100467.41;;;11.54;100.00
27984;BME280;15317;50.360;8.726;2023-09-30T20:08:40;100453.25;;;11.50;100.00
27984;BME280;15317;50.360;8.726;2023-09-30T20:13:44;100455.53;;;11.45;100.00
27984;BME280;15317;50.360;8.726;2023-09-30T20:18:48;100458.38;;;11.34;100.00
27984;BME280;15317;50.360;8.726;2023-09-30T20:23:51;100454.38;;;11.28;100.00
27984;BME280;15317;50.360;8.726;2023-09-30T20:28:57;100454.78;;;11.33;100.00
27984;BME280;15317;50.360;8.726;2023-09-30T20:34:04;100469.69;;;11.29;100.00
27984;BME280;15317;50.360;8.726;2023-09-30T20:39:08;100471.25;;;11.22;100.00
27984;BME280;15317;50.360;8.726;2023-09-30T20:44:14;100474.41;;;11.18;100.00
27984;BME280;15317;50.360;8.726;2023-09-30T20:49:17;100477.81;;;11.10;100.00
27984;BME280;15317;50.360;8.726;2023-09-30T20:54:22;100485.53;;;11.05;100.00
27984;BME280;15317;50.360;8.726;2023-09-30T20:59:27;100485.06;;;11.00;100.00
27984;BME280;15317;50.360;8.726;2023-09-30T21:04:30;100483.81;;;11.04;100.00
27984;BME280;15317;50.360;8.726;2023-09-30T21:09:34;100476.09;;;11.09;100.00
27984;BME280;15317;50.360;8.726;2023-09-30T21:14:38;100482.50;;;11.08;100.00
27984;BME280;15317;50.360;8.726;2023-09-30T21:19:41;100481.94;;;11.04;100.00
27984;BME280;15317;50.360;8.726;2023-09-30T21:24:45;100479.91;;;10.97;100.00
27984;BME280;15317;50.360;8.726;2023-09-30T21:29:49;100485.13;;;10.79;100.00
27984;BME280;15317;50.360;8.726;2023-09-30T21:34:53;100480.94;;;10.65;100.00
27984;BME280;15317;50.360;8.726;2023-09-30T21:39:56;100474.31;;;10.58;100.00
27984;BME280;15317;50.360;8.726;2023-09-30T21:45:01;100484.75;;;10.53;100.00
27984;BME280;15317;50.360;8.726;2023-09-30T21:50:05;100494.75;;;10.53;100.00
27984;BME280;15317;50.360;8.726;2023-09-30T21:55:08;100492.44;;;10.48;100.00
27984;BME280;15317;50.360;8.726;2023-09-30T22:00:14;100480.09;;;10.44;100.00
27984;BME280;15317;50.360;8.726;2023-09-30T22:05:28;100484.84;;;10.42;100.00
27984;BME280;15317;50.360;8.726;2023-09-30T22:10:32;100491.25;;;10.41;100.00
27984;BME280;15317;50.360;8.726;2023-09-30T22:15:36;100500.69;;;10.37;100.00
27984;BME280;15317;50.360;8.726;2023-09-30T22:20:40;100490.75;;;10.26;100.00
27984;BME280;15317;50.360;8.726;2023-09-30T22:25:43;100494.72;;;10.22;100.00
27984;BME280;15317;50.360;8.726;2023-09-30T22:30:49;100488.94;;;10.16;100.00
27984;BME280;15317;50.360;8.726;2023-09-30T22:35:53;100477.81;;;10.19;100.00
27984;BME280;15317;50.360;8.726;2023-09-30T22:40:56;100476.47;;;10.13;100.00
27984;BME280;15317;50.360;8.726;2023-09-30T22:46:00;100481.16;;;10.11;100.00
27984;BME280;15317;50.360;8.726;2023-09-30T22:51:08;100484.28;;;10.07;100.00
27984;BME280;15317;50.360;8.726;2023-09-30T22:56:15;100482.56;;;10.06;100.00
27984;BME280;15317;50.360;8.726;2023-09-30T23:01:23;100487.78;;;9.98;100.00
27984;BME280;15317;50.360;8.726;2023-09-30T23:06:28;100485.88;;;9.88;100.00
27984;BME280;15317;50.360;8.726;2023-09-30T23:11:31;100479.97;;;9.83;100.00
27984;BME280;15317;50.360;8.726;2023-09-30T23:16:36;100484.16;;;9.87;100.00
27984;BME280;15317;50.360;8.726;2023-09-30T23:21:41;100479.72;;;9.86;100.00
27984;BME280;15317;50.360;8.726;2023-09-30T23:26:44;100491.56;;;9.85;100.00
27984;BME280;15317;50.360;8.726;2023-09-30T23:31:51;100495.53;;;9.81;100.00
27984;BME280;15317;50.360;8.726;2023-09-30T23:36:55;100502.31;;;9.76;100.00
27984;BME280;15317;50.360;8.726;2023-09-30T23:42:01;100513.44;;;9.73;100.00
27984;BME280;15317;50.360;8.726;2023-09-30T23:47:08;100512.97;;;9.68;100.00
27984;BME280;15317;50.360;8.726;2023-09-30T23:52:14;100515.81;;;9.66;100.00
27984;BME280;15317;50.360;8.726;2023-09-30T23:57:17;100512.97;;;9.68;100.00
